sensor_id;sensor_type;location;lat;lon;timestamp;temperature;humidity
37998;DHT22;24079;51.824;4.682;2022-11-25T00:02:06;9.70;99.90
37998;DHT22;24079;51.824;4.682;2022-11-25T00:04:32;9.70;99.90
37998;DHT22;24079;51.824;4.682;2022-11-25T00:07:01;9.70;99.90
37998;DHT22;24079;51.824;4.682;2022-11-25T00:09:27;9.80;99.90
37998;DHT22;24079;51.824;4.682;2022-11-25T00:11:53;9.80;99.90
37998;DHT22;24079;51.824;4.682;2022-11-25T00:14:18;9.70;99.90
37998;DHT22;24079;51.824;4.682;2022-11-25T00:16:44;9.70;99.90
37998;DHT22;24079;51.824;4.682;2022-11-25T00:19:09;9.80;99.90
37998;DHT22;24079;51.824;4.682;2022-11-25T00:21:36;9.70;99.90
37998;DHT22;24079;51.824;4.682;2022-11-25T00:24:04;9.70;99.90
37998;DHT22;24079;51.824;4.682;2022-11-25T00:26:31;9.70;99.90
37998;DHT22;24079;51.824;4.682;2022-11-25T00:28:58;9.80;99.90
37998;DHT22;24079;51.824;4.682;2022-11-25T00:31:27;9.80;99.90
37998;DHT22;24079;51.824;4.682;2022-11-25T00:33:53;9.70;99.90
37998;DHT22;24079;51.824;4.682;2022-11-25T00:36:28;9.80;99.90
37998;DHT22;24079;51.824;4.682;2022-11-25T00:38:56;9.80;99.90
37998;DHT22;24079;51.824;4.682;2022-11-25T00:41:22;9.90;99.90
37998;DHT22;24079;51.824;4.682;2022-11-25T00:44:09;9.90;99.90
37998;DHT22;24079;51.824;4.682;2022-11-25T00:46:53;9.80;99.90
37998;DHT22;24079;51.824;4.682;2022-11-25T00:49:19;9.80;99.90
37998;DHT22;24079;51.824;4.682;2022-11-25T00:51:44;9.90;99.90
37998;DHT22;24079;51.824;4.682;2022-11-25T00:54:10;9.90;99.90
37998;DHT22;24079;51.824;4.682;2022-11-25T00:56:36;9.90;99.90
37998;DHT22;24079;51.824;4.682;2022-11-25T00:59:02;9.90;99.90
37998;DHT22;24079;51.824;4.682;2022-11-25T01:01:28;9.90;99.90
37998;DHT22;24079;51.824;4.682;2022-11-25T01:03:53;9.90;99.90
37998;DHT22;24079;51.824;4.682;2022-11-25T01:06:19;9.90;99.90
37998;DHT22;24079;51.824;4.682;2022-11-25T01:08:45;9.90;99.90
37998;DHT22;24079;51.824;4.682;2022-11-25T01:11:18;9.80;99.90
37998;DHT22;24079;51.824;4.682;2022-11-25T01:13:44;9.90;99.90
37998;DHT22;24079;51.824;4.682;2022-11-25T01:16:12;9.90;99.90
37998;DHT22;24079;51.824;4.682;2022-11-25T01:18:38;10.00;99.90
37998;DHT22;24079;51.824;4.682;2022-11-25T01:21:22;9.90;99.90
37998;DHT22;24079;51.824;4.682;2022-11-25T01:23:48;10.00;99.90
37998;DHT22;24079;51.824;4.682;2022-11-25T01:26:17;10.00;99.90
37998;DHT22;24079;51.824;4.682;2022-11-25T01:28:44;10.00;99.90
37998;DHT22;24079;51.824;4.682;2022-11-25T01:31:18;10.00;99.90
37998;DHT22;24079;51.824;4.682;2022-11-25T01:33:45;10.00;99.90
37998;DHT22;24079;51.824;4.682;2022-11-25T01:36:16;10.10;99.90
37998;DHT22;24079;51.824;4.682;2022-11-25T01:38:42;10.10;99.90
37998;DHT22;24079;51.824;4.682;2022-11-25T01:41:10;10.20;99.90
37998;DHT22;24079;51.824;4.682;2022-11-25T01:43:36;10.20;99.90
37998;DHT22;24079;51.824;4.682;2022-11-25T01:46:11;10.20;99.90
37998;DHT22;24079;51.824;4.682;2022-11-25T01:48:49;10.20;99.90
37998;DHT22;24079;51.824;4.682;2022-11-25T01:51:45;10.20;99.90
37998;DHT22;24079;51.824;4.682;2022-11-25T01:54:15;10.20;99.90
37998;DHT22;24079;51.824;4.682;2022-11-25T01:56:48;10.20;99.90
37998;DHT22;24079;51.824;4.682;2022-11-25T01:59:14;10.20;99.90
37998;DHT22;24079;51.824;4.682;2022-11-25T02:01:40;10.20;99.90
37998;DHT22;24079;51.824;4.682;2022-11-25T02:04:06;10.20;99.90
37998;DHT22;24079;51.824;4.682;2022-11-25T02:06:48;10.20;99.90
37998;DHT22;24079;51.824;4.682;2022-11-25T02:09:16;10.20;99.90
37998;DHT22;24079;51.824;4.682;2022-11-25T02:11:43;10.20;99.90
37998;DHT22;24079;51.824;4.682;2022-11-25T02:14:11;10.20;99.90
37998;DHT22;24079;51.824;4.682;2022-11-25T02:16:37;10.20;99.90
37998;DHT22;24079;51.824;4.682;2022-11-25T02:19:04;10.20;99.90
37998;DHT22;24079;51.824;4.682;2022-11-25T02:21:37;10.20;99.90
37998;DHT22;24079;51.824;4.682;2022-11-25T02:24:12;10.20;99.90
37998;DHT22;24079;51.824;4.682;2022-11-25T02:26:38;10.20;99.90
37998;DHT22;24079;51.824;4.682;2022-11-25T02:29:04;10.20;99.90
37998;DHT22;24079;51.824;4.682;2022-11-25T02:31:30;10.20;99.90
37998;DHT22;24079;51.824;4.682;2022-11-25T02:33:55;10.10;99.90
37998;DHT22;24079;51.824;4.682;2022-11-25T02:36:22;10.20;99.90
37998;DHT22;24079;51.824;4.682;2022-11-25T02:38:56;10.20;99.90
37998;DHT22;24079;51.824;4.682;2022-11-25T02:41:31;10.20;99.90
37998;DHT22;24079;51.824;4.682;2022-11-25T02:43:59;10.10;99.90
37998;DHT22;24079;51.824;4.682;2022-11-25T02:46:26;10.10;99.90
37998;DHT22;24079;51.824;4.682;2022-11-25T02:48:54;10.10;99.90
37998;DHT22;24079;51.824;4.682;2022-11-25T02:51:22;10.10;99.90
37998;DHT22;24079;51.824;4.682;2022-11-25T02:53:48;10.00;99.90
37998;DHT22;24079;51.824;4.682;2022-11-25T02:56:15;10.00;99.90
37998;DHT22;24079;51.824;4.682;2022-11-25T02:58:41;10.10;99.90
37998;DHT22;24079;51.824;4.682;2022-11-25T03:01:07;10.00;99.90
37998;DHT22;24079;51.824;4.682;2022-11-25T03:03:34;10.10;99.90
37998;DHT22;24079;51.824;4.682;2022-11-25T03:06:00;10.10;99.90
37998;DHT22;24079;51.824;4.682;2022-11-25T03:08:25;10.00;99.90
37998;DHT22;24079;51.824;4.682;2022-11-25T03:10:51;10.00;99.90
37998;DHT22;24079;51.824;4.682;2022-11-25T03:13:16;10.10;99.90
37998;DHT22;24079;51.824;4.682;2022-11-25T03:15:42;10.00;99.90
37998;DHT22;24079;51.824;4.682;2022-11-25T03:18:07;10.00;99.90
37998;DHT22;24079;51.824;4.682;2022-11-25T03:20:34;10.00;99.90
37998;DHT22;24079;51.824;4.682;2022-11-25T03:23:00;10.00;99.90
37998;DHT22;24079;51.824;4.682;2022-11-25T03:25:26;10.10;99.90
37998;DHT22;24079;51.824;4.682;2022-11-25T03:27:51;10.00;99.90
37998;DHT22;24079;51.824;4.682;2022-11-25T03:30:20;10.00;99.90
37998;DHT22;24079;51.824;4.682;2022-11-25T03:32:46;10.00;99.90
37998;DHT22;24079;51.824;4.682;2022-11-25T03:35:13;10.00;99.90
37998;DHT22;24079;51.824;4.682;2022-11-25T03:37:39;10.00;99.90
37998;DHT22;24079;51.824;4.682;2022-11-25T03:40:06;9.90;99.90
37998;DHT22;24079;51.824;4.682;2022-11-25T03:42:32;9.90;99.90
37998;DHT22;24079;51.824;4.682;2022-11-25T03:44:58;9.80;99.90
37998;DHT22;24079;51.824;4.682;2022-11-25T03:47:23;9.80;99.90
37998;DHT22;24079;51.824;4.682;2022-11-25T03:49:49;9.80;99.90
37998;DHT22;24079;51.824;4.682;2022-11-25T03:52:15;9.80;99.90
37998;DHT22;24079;51.824;4.682;2022-11-25T03:54:40;9.70;99.90
37998;DHT22;24079;51.824;4.682;2022-11-25T03:57:06;9.70;99.90
37998;DHT22;24079;51.824;4.682;2022-11-25T03:59:32;9.70;99.90
37998;DHT22;24079;51.824;4.682;2022-11-25T04:01:57;9.70;99.90
37998;DHT22;24079;51.824;4.682;2022-11-25T04:04:23;9.70;99.90
37998;DHT22;24079;51.824;4.682;2022-11-25T04:06:49;9.70;99.90
37998;DHT22;24079;51.824;4.682;2022-11-25T04:09:14;9.60;99.90
37998;DHT22;24079;51.824;4.682;2022-11-25T04:11:40;9.50;99.90
37998;DHT22;24079;51.824;4.682;2022-11-25T04:14:24;9.50;99.90
37998;DHT22;24079;51.824;4.682;2022-11-25T04:16:50;9.50;99.90
37998;DHT22;24079;51.824;4.682;2022-11-25T04:19:16;9.60;99.90
37998;DHT22;24079;51.824;4.682;2022-11-25T04:21:42;9.50;99.90
37998;DHT22;24079;51.824;4.682;2022-11-25T04:24:07;9.50;99.90
37998;DHT22;24079;51.824;4.682;2022-11-25T04:26:33;9.50;99.90
37998;DHT22;24079;51.824;4.682;2022-11-25T04:28:59;9.60;99.90
37998;DHT22;24079;51.824;4.682;2022-11-25T04:31:24;9.50;99.90
37998;DHT22;24079;51.824;4.682;2022-11-25T04:33:50;9.50;99.90
37998;DHT22;24079;51.824;4.682;2022-11-25T04:36:16;9.50;99.90
37998;DHT22;24079;51.824;4.682;2022-11-25T04:38:41;9.40;99.90
37998;DHT22;24079;51.824;4.682;2022-11-25T04:41:07;9.50;99.90
37998;DHT22;24079;51.824;4.682;2022-11-25T04:43:33;9.50;99.90
37998;DHT22;24079;51.824;4.682;2022-11-25T04:45:58;9.40;99.90
37998;DHT22;24079;51.824;4.682;2022-11-25T04:48:24;9.40;99.90
37998;DHT22;24079;51.824;4.682;2022-11-25T04:50:50;9.50;99.90
37998;DHT22;24079;51.824;4.682;2022-11-25T04:53:15;9.50;99.90
37998;DHT22;24079;51.824;4.682;2022-11-25T04:55:41;9.50;99.90
37998;DHT22;24079;51.824;4.682;2022-11-25T04:58:07;9.50;99.90
37998;DHT22;24079;51.824;4.682;2022-11-25T05:00:33;9.50;99.90
37998;DHT22;24079;51.824;4.682;2022-11-25T05:02:58;9.50;99.90
37998;DHT22;24079;51.824;4.682;2022-11-25T05:05:24;9.50;99.90
37998;DHT22;24079;51.824;4.682;2022-11-25T05:07:49;9.50;99.90
37998;DHT22;24079;51.824;4.682;2022-11-25T05:10:15;9.50;99.90
37998;DHT22;24079;51.824;4.682;2022-11-25T05:12:41;9.50;99.90
37998;DHT22;24079;51.824;4.682;2022-11-25T05:15:07;9.50;99.90
37998;DHT22;24079;51.824;4.682;2022-11-25T05:17:33;9.50;99.90
37998;DHT22;24079;51.824;4.682;2022-11-25T05:19:59;9.60;99.90
37998;DHT22;24079;51.824;4.682;2022-11-25T05:22:28;9.50;99.90
37998;DHT22;24079;51.824;4.682;2022-11-25T05:24:54;9.50;99.90
37998;DHT22;24079;51.824;4.682;2022-11-25T05:27:20;9.50;99.90
37998;DHT22;24079;51.824;4.682;2022-11-25T05:29:47;9.50;99.90
37998;DHT22;24079;51.824;4.682;2022-11-25T05:32:13;9.50;99.90
37998;DHT22;24079;51.824;4.682;2022-11-25T05:34:39;9.50;99.90
37998;DHT22;24079;51.824;4.682;2022-11-25T05:37:06;9.50;99.90
37998;DHT22;24079;51.824;4.682;2022-11-25T05:39:32;9.50;99.90
37998;DHT22;24079;51.824;4.682;2022-11-25T05:41:58;9.50;99.90
37998;DHT22;24079;51.824;4.682;2022-11-25T05:44:24;9.40;99.90
37998;DHT22;24079;51.824;4.682;2022-11-25T05:46:49;9.40;99.90
37998;DHT22;24079;51.824;4.682;2022-11-25T05:49:16;9.40;99.90
37998;DHT22;24079;51.824;4.682;2022-11-25T05:51:42;9.40;99.90
37998;DHT22;24079;51.824;4.682;2022-11-25T05:54:07;9.40;99.90
37998;DHT22;24079;51.824;4.682;2022-11-25T05:56:33;9.30;99.90
37998;DHT22;24079;51.824;4.682;2022-11-25T05:58:59;9.30;99.90
37998;DHT22;24079;51.824;4.682;2022-11-25T06:01:25;9.20;99.90
37998;DHT22;24079;51.824;4.682;2022-11-25T06:03:50;9.30;99.90
37998;DHT22;24079;51.824;4.682;2022-11-25T06:06:17;9.30;99.90
37998;DHT22;24079;51.824;4.682;2022-11-25T06:08:42;9.20;99.90
37998;DHT22;24079;51.824;4.682;2022-11-25T06:11:13;9.20;99.90
37998;DHT22;24079;51.824;4.682;2022-11-25T06:13:40;9.20;99.90
37998;DHT22;24079;51.824;4.682;2022-11-25T06:16:11;9.20;99.90
37998;DHT22;24079;51.824;4.682;2022-11-25T06:18:38;9.10;99.90
37998;DHT22;24079;51.824;4.682;2022-11-25T06:21:05;9.10;99.90
37998;DHT22;24079;51.824;4.682;2022-11-25T06:23:31;9.10;99.90
37998;DHT22;24079;51.824;4.682;2022-11-25T06:26:13;9.10;99.90
37998;DHT22;24079;51.824;4.682;2022-11-25T06:28:39;9.10;99.90
37998;DHT22;24079;51.824;4.682;2022-11-25T06:31:11;9.10;99.90
37998;DHT22;24079;51.824;4.682;2022-11-25T06:33:37;9.10;99.90
37998;DHT22;24079;51.824;4.682;2022-11-25T06:36:04;9.10;99.90
37998;DHT22;24079;51.824;4.682;2022-11-25T06:38:31;9.10;99.90
37998;DHT22;24079;51.824;4.682;2022-11-25T06:41:01;9.10;99.90
37998;DHT22;24079;51.824;4.682;2022-11-25T06:43:27;9.10;99.90
37998;DHT22;24079;51.824;4.682;2022-11-25T06:45:53;9.00;99.90
37998;DHT22;24079;51.824;4.682;2022-11-25T06:48:18;9.10;99.90
37998;DHT22;24079;51.824;4.682;2022-11-25T06:50:44;9.10;99.90
37998;DHT22;24079;51.824;4.682;2022-11-25T06:53:09;9.10;99.90
37998;DHT22;24079;51.824;4.682;2022-11-25T06:55:35;9.10;99.90
37998;DHT22;24079;51.824;4.682;2022-11-25T06:58:01;9.10;99.90
37998;DHT22;24079;51.824;4.682;2022-11-25T07:00:26;9.10;99.90
37998;DHT22;24079;51.824;4.682;2022-11-25T07:02:52;9.10;99.90
37998;DHT22;24079;51.824;4.682;2022-11-25T07:05:17;9.10;99.90
37998;DHT22;24079;51.824;4.682;2022-11-25T07:07:43;9.10;99.90
37998;DHT22;24079;51.824;4.682;2022-11-25T07:10:09;9.00;99.90
37998;DHT22;24079;51.824;4.682;2022-11-25T07:12:34;9.00;99.90
37998;DHT22;24079;51.824;4.682;2022-11-25T07:15:00;9.00;99.90
37998;DHT22;24079;51.824;4.682;2022-11-25T07:17:25;8.90;99.90
37998;DHT22;24079;51.824;4.682;2022-11-25T07:19:51;9.00;99.90
37998;DHT22;24079;51.824;4.682;2022-11-25T07:22:17;9.00;99.90
37998;DHT22;24079;51.824;4.682;2022-11-25T07:24:43;8.90;99.90
37998;DHT22;24079;51.824;4.682;2022-11-25T07:27:08;8.80;99.90
37998;DHT22;24079;51.824;4.682;2022-11-25T07:29:34;8.90;99.90
37998;DHT22;24079;51.824;4.682;2022-11-25T07:32:00;8.90;99.90
37998;DHT22;24079;51.824;4.682;2022-11-25T07:34:26;8.90;99.90
37998;DHT22;24079;51.824;4.682;2022-11-25T07:36:51;8.90;99.90
37998;DHT22;24079;51.824;4.682;2022-11-25T07:39:20;8.90;99.90
37998;DHT22;24079;51.824;4.682;2022-11-25T07:41:49;8.90;99.90
37998;DHT22;24079;51.824;4.682;2022-11-25T07:44:15;8.80;99.90
37998;DHT22;24079;51.824;4.682;2022-11-25T07:46:43;8.80;99.90
37998;DHT22;24079;51.824;4.682;2022-11-25T07:49:11;8.90;99.90
37998;DHT22;24079;51.824;4.682;2022-11-25T07:51:51;8.90;99.90
37998;DHT22;24079;51.824;4.682;2022-11-25T07:54:19;8.90;99.90
37998;DHT22;24079;51.824;4.682;2022-11-25T07:56:44;8.90;99.90
37998;DHT22;24079;51.824;4.682;2022-11-25T07:59:19;8.90;99.90
37998;DHT22;24079;51.824;4.682;2022-11-25T08:01:48;8.90;99.90
37998;DHT22;24079;51.824;4.682;2022-11-25T08:04:13;8.90;99.90
37998;DHT22;24079;51.824;4.682;2022-11-25T08:06:41;9.00;99.90
37998;DHT22;24079;51.824;4.682;2022-11-25T08:09:09;9.00;99.90
37998;DHT22;24079;51.824;4.682;2022-11-25T08:11:35;9.00;99.90
37998;DHT22;24079;51.824;4.682;2022-11-25T08:14:01;9.00;99.90
37998;DHT22;24079;51.824;4.682;2022-11-25T08:16:28;9.10;99.90
37998;DHT22;24079;51.824;4.682;2022-11-25T08:18:56;9.10;99.90
37998;DHT22;24079;51.824;4.682;2022-11-25T08:21:22;9.10;99.90
37998;DHT22;24079;51.824;4.682;2022-11-25T08:23:48;9.20;99.90
37998;DHT22;24079;51.824;4.682;2022-11-25T08:26:23;9.10;99.90
37998;DHT22;24079;51.824;4.682;2022-11-25T08:28:50;9.10;99.90
37998;DHT22;24079;51.824;4.682;2022-11-25T08:31:22;9.20;99.90
37998;DHT22;24079;51.824;4.682;2022-11-25T08:33:49;9.20;99.90
37998;DHT22;24079;51.824;4.682;2022-11-25T08:36:16;9.30;99.90
37998;DHT22;24079;51.824;4.682;2022-11-25T08:38:43;9.20;99.90
37998;DHT22;24079;51.824;4.682;2022-11-25T08:41:12;9.20;99.90
37998;DHT22;24079;51.824;4.682;2022-11-25T08:43:39;9.30;99.90
37998;DHT22;24079;51.824;4.682;2022-11-25T08:46:10;9.30;99.90
37998;DHT22;24079;51.824;4.682;2022-11-25T08:48:36;9.30;99.90
37998;DHT22;24079;51.824;4.682;2022-11-25T08:51:02;9.30;99.90
37998;DHT22;24079;51.824;4.682;2022-11-25T08:53:31;9.30;99.90
37998;DHT22;24079;51.824;4.682;2022-11-25T08:55:56;9.30;99.90
37998;DHT22;24079;51.824;4.682;2022-11-25T08:58:22;9.40;99.90
37998;DHT22;24079;51.824;4.682;2022-11-25T09:00:47;9.40;99.90
37998;DHT22;24079;51.824;4.682;2022-11-25T09:03:13;9.40;99.90
37998;DHT22;24079;51.824;4.682;2022-11-25T09:05:40;9.50;99.90
37998;DHT22;24079;51.824;4.682;2022-11-25T09:08:07;9.50;99.90
37998;DHT22;24079;51.824;4.682;2022-11-25T09:10:34;9.50;99.90
37998;DHT22;24079;51.824;4.682;2022-11-25T09:13:00;9.50;99.90
37998;DHT22;24079;51.824;4.682;2022-11-25T09:15:25;9.50;99.90
37998;DHT22;24079;51.824;4.682;2022-11-25T09:17:59;9.60;99.90
37998;DHT22;24079;51.824;4.682;2022-11-25T09:20:25;9.50;99.90
37998;DHT22;24079;51.824;4.682;2022-11-25T09:22:51;9.60;99.90
37998;DHT22;24079;51.824;4.682;2022-11-25T09:25:16;9.70;99.90
37998;DHT22;24079;51.824;4.682;2022-11-25T09:27:42;9.70;99.90
37998;DHT22;24079;51.824;4.682;2022-11-25T09:30:08;9.70;99.90
37998;DHT22;24079;51.824;4.682;2022-11-25T09:32:33;9.80;99.90
37998;DHT22;24079;51.824;4.682;2022-11-25T09:34:59;9.80;99.90
37998;DHT22;24079;51.824;4.682;2022-11-25T09:37:24;9.80;99.90
37998;DHT22;24079;51.824;4.682;2022-11-25T09:39:52;9.90;99.90
37998;DHT22;24079;51.824;4.682;2022-11-25T09:45:52;10.00;99.90
37998;DHT22;24079;51.824;4.682;2022-11-25T10:03:01;10.20;99.90
37998;DHT22;24079;51.824;4.682;2022-11-25T10:05:36;10.30;99.90
37998;DHT22;24079;51.824;4.682;2022-11-25T10:08:10;10.30;99.90
37998;DHT22;24079;51.824;4.682;2022-11-25T10:10:45;10.40;99.90
37998;DHT22;24079;51.824;4.682;2022-11-25T10:13:23;10.50;99.90
37998;DHT22;24079;51.824;4.682;2022-11-25T10:15:53;10.50;99.90
37998;DHT22;24079;51.824;4.682;2022-11-25T10:18:30;10.50;99.90
37998;DHT22;24079;51.824;4.682;2022-11-25T10:20:58;10.60;99.90
37998;DHT22;24079;51.824;4.682;2022-11-25T10:23:28;10.60;99.90
37998;DHT22;24079;51.824;4.682;2022-11-25T10:26:00;10.70;99.90
37998;DHT22;24079;51.824;4.682;2022-11-25T10:28:31;10.80;99.90
37998;DHT22;24079;51.824;4.682;2022-11-25T10:31:35;10.80;99.90
37998;DHT22;24079;51.824;4.682;2022-11-25T10:34:20;10.90;99.90
37998;DHT22;24079;51.824;4.682;2022-11-25T10:36:49;11.00;99.90
37998;DHT22;24079;51.824;4.682;2022-11-25T10:39:28;11.00;99.90
37998;DHT22;24079;51.824;4.682;2022-11-25T10:44:35;11.00;99.90
37998;DHT22;24079;51.824;4.682;2022-11-25T10:52:28;11.20;99.90
37998;DHT22;24079;51.824;4.682;2022-11-25T10:55:14;11.20;99.90
37998;DHT22;24079;51.824;4.682;2022-11-25T10:57:40;11.30;99.90
37998;DHT22;24079;51.824;4.682;2022-11-25T11:00:07;11.30;99.90
37998;DHT22;24079;51.824;4.682;2022-11-25T11:02:48;11.30;99.90
37998;DHT22;24079;51.824;4.682;2022-11-25T11:05:18;11.30;99.90
37998;DHT22;24079;51.824;4.682;2022-11-25T11:07:46;11.40;99.90
37998;DHT22;24079;51.824;4.682;2022-11-25T11:13:05;11.50;99.90
37998;DHT22;24079;51.824;4.682;2022-11-25T11:17:59;11.50;99.90
37998;DHT22;24079;51.824;4.682;2022-11-25T11:20:29;11.50;99.90
37998;DHT22;24079;51.824;4.682;2022-11-25T11:23:01;11.60;99.90
37998;DHT22;24079;51.824;4.682;2022-11-25T11:25:33;11.60;99.90
37998;DHT22;24079;51.824;4.682;2022-11-25T11:28:00;11.60;99.90
37998;DHT22;24079;51.824;4.682;2022-11-25T11:30:29;11.70;99.90
37998;DHT22;24079;51.824;4.682;2022-11-25T11:33:06;11.70;99.90
37998;DHT22;24079;51.824;4.682;2022-11-25T11:41:35;11.70;99.90
37998;DHT22;24079;51.824;4.682;2022-11-25T11:47:09;11.70;99.90
37998;DHT22;24079;51.824;4.682;2022-11-25T11:49:41;11.70;99.90
37998;DHT22;24079;51.824;4.682;2022-11-25T12:03:28;12.00;99.90
37998;DHT22;24079;51.824;4.682;2022-11-25T12:05:56;11.90;99.90
37998;DHT22;24079;51.824;4.682;2022-11-25T12:08:55;11.90;99.90
37998;DHT22;24079;51.824;4.682;2022-11-25T12:11:28;11.70;99.90
37998;DHT22;24079;51.824;4.682;2022-11-25T12:14:02;11.80;99.90
37998;DHT22;24079;51.824;4.682;2022-11-25T12:16:47;11.80;99.90
37998;DHT22;24079;51.824;4.682;2022-11-25T12:19:23;11.90;99.90
37998;DHT22;24079;51.824;4.682;2022-11-25T12:24:36;12.20;99.90
37998;DHT22;24079;51.824;4.682;2022-11-25T12:27:10;12.20;99.90
37998;DHT22;24079;51.824;4.682;2022-11-25T12:32:39;12.10;99.90
37998;DHT22;24079;51.824;4.682;2022-11-25T12:37:38;12.00;99.90
37998;DHT22;24079;51.824;4.682;2022-11-25T12:40:25;12.10;99.90
37998;DHT22;24079;51.824;4.682;2022-11-25T12:43:11;12.10;99.90
37998;DHT22;24079;51.824;4.682;2022-11-25T12:45:41;12.20;99.90
37998;DHT22;24079;51.824;4.682;2022-11-25T12:48:10;12.10;99.90
37998;DHT22;24079;51.824;4.682;2022-11-25T12:53:26;12.30;99.90
37998;DHT22;24079;51.824;4.682;2022-11-25T12:56:00;12.30;99.90
37998;DHT22;24079;51.824;4.682;2022-11-25T12:58:58;12.20;99.90
37998;DHT22;24079;51.824;4.682;2022-11-25T13:01:41;12.10;99.90
37998;DHT22;24079;51.824;4.682;2022-11-25T13:06:57;11.90;99.90
37998;DHT22;24079;51.824;4.682;2022-11-25T13:09:45;11.90;99.90
37998;DHT22;24079;51.824;4.682;2022-11-25T13:15:11;12.00;99.90
37998;DHT22;24079;51.824;4.682;2022-11-25T13:17:42;12.10;99.90
37998;DHT22;24079;51.824;4.682;2022-11-25T13:20:44;12.30;99.90
37998;DHT22;24079;51.824;4.682;2022-11-25T13:25:39;12.40;99.90
37998;DHT22;24079;51.824;4.682;2022-11-25T13:36:21;12.30;99.90
37998;DHT22;24079;51.824;4.682;2022-11-25T13:46:40;12.10;99.90
37998;DHT22;24079;51.824;4.682;2022-11-25T13:49:21;12.10;99.90
37998;DHT22;24079;51.824;4.682;2022-11-25T13:51:50;12.10;99.90
37998;DHT22;24079;51.824;4.682;2022-11-25T13:54:18;12.10;99.90
37998;DHT22;24079;51.824;4.682;2022-11-25T13:59:47;12.00;99.90
37998;DHT22;24079;51.824;4.682;2022-11-25T14:05:20;12.00;99.90
37998;DHT22;24079;51.824;4.682;2022-11-25T14:08:59;12.10;99.90
37998;DHT22;24079;51.824;4.682;2022-11-25T14:13:49;12.10;99.90
37998;DHT22;24079;51.824;4.682;2022-11-25T14:16:34;12.00;99.90
37998;DHT22;24079;51.824;4.682;2022-11-25T14:19:19;11.90;99.90
37998;DHT22;24079;51.824;4.682;2022-11-25T14:22:09;11.90;99.90
37998;DHT22;24079;51.824;4.682;2022-11-25T14:24:45;11.90;99.90
37998;DHT22;24079;51.824;4.682;2022-11-25T14:27:14;11.90;99.90
37998;DHT22;24079;51.824;4.682;2022-11-25T14:30:03;11.90;99.90
37998;DHT22;24079;51.824;4.682;2022-11-25T14:32:43;11.80;99.90
37998;DHT22;24079;51.824;4.682;2022-11-25T14:35:18;11.90;99.90
37998;DHT22;24079;51.824;4.682;2022-11-25T14:37:53;11.80;99.90
37998;DHT22;24079;51.824;4.682;2022-11-25T14:40:25;11.80;99.90
37998;DHT22;24079;51.824;4.682;2022-11-25T14:42:58;11.70;99.90
37998;DHT22;24079;51.824;4.682;2022-11-25T14:45:33;11.70;99.90
37998;DHT22;24079;51.824;4.682;2022-11-25T14:48:16;11.70;99.90
37998;DHT22;24079;51.824;4.682;2022-11-25T14:50:59;11.70;99.90
37998;DHT22;24079;51.824;4.682;2022-11-25T14:53:26;11.70;99.90
37998;DHT22;24079;51.824;4.682;2022-11-25T14:55:53;11.70;99.90
37998;DHT22;24079;51.824;4.682;2022-11-25T14:58:20;11.70;99.90
37998;DHT22;24079;51.824;4.682;2022-11-25T15:01:06;11.70;99.90
37998;DHT22;24079;51.824;4.682;2022-11-25T15:03:32;11.70;99.90
37998;DHT22;24079;51.824;4.682;2022-11-25T15:06:05;11.60;99.90
37998;DHT22;24079;51.824;4.682;2022-11-25T15:08:42;11.50;99.90
37998;DHT22;24079;51.824;4.682;2022-11-25T15:11:17;11.60;99.90
37998;DHT22;24079;51.824;4.682;2022-11-25T15:13:48;11.60;99.90
37998;DHT22;24079;51.824;4.682;2022-11-25T15:16:19;11.60;99.90
37998;DHT22;24079;51.824;4.682;2022-11-25T15:21:15;11.50;99.90
37998;DHT22;24079;51.824;4.682;2022-11-25T15:23:41;11.50;99.90
37998;DHT22;24079;51.824;4.682;2022-11-25T15:26:22;11.40;99.90
37998;DHT22;24079;51.824;4.682;2022-11-25T15:29:18;11.40;99.90
37998;DHT22;24079;51.824;4.682;2022-11-25T15:31:45;11.40;99.90
37998;DHT22;24079;51.824;4.682;2022-11-25T15:34:13;11.30;99.90
37998;DHT22;24079;51.824;4.682;2022-11-25T15:36:41;11.30;99.90
37998;DHT22;24079;51.824;4.682;2022-11-25T15:44:35;11.20;99.90
37998;DHT22;24079;51.824;4.682;2022-11-25T15:47:05;11.10;99.90
37998;DHT22;24079;51.824;4.682;2022-11-25T15:49:33;11.10;99.90
37998;DHT22;24079;51.824;4.682;2022-11-25T15:52:03;11.00;99.90
37998;DHT22;24079;51.824;4.682;2022-11-25T15:54:37;11.00;99.90
37998;DHT22;24079;51.824;4.682;2022-11-25T15:57:22;11.00;99.90
37998;DHT22;24079;51.824;4.682;2022-11-25T16:13:16;11.00;99.90
37998;DHT22;24079;51.824;4.682;2022-11-25T16:15:46;10.90;99.90
37998;DHT22;24079;51.824;4.682;2022-11-25T16:18:15;10.80;99.90
37998;DHT22;24079;51.824;4.682;2022-11-25T16:20:53;10.90;99.90
37998;DHT22;24079;51.824;4.682;2022-11-25T16:23:21;10.80;99.90
37998;DHT22;24079;51.824;4.682;2022-11-25T16:25:54;10.70;99.90
37998;DHT22;24079;51.824;4.682;2022-11-25T16:28:22;10.70;99.90
37998;DHT22;24079;51.824;4.682;2022-11-25T16:30:49;10.70;99.90
37998;DHT22;24079;51.824;4.682;2022-11-25T16:33:16;10.70;99.90
37998;DHT22;24079;51.824;4.682;2022-11-25T16:35:41;10.70;99.90
37998;DHT22;24079;51.824;4.682;2022-11-25T16:38:09;10.70;99.90
37998;DHT22;24079;51.824;4.682;2022-11-25T16:40:36;10.70;99.90
37998;DHT22;24079;51.824;4.682;2022-11-25T16:43:03;10.80;99.90
37998;DHT22;24079;51.824;4.682;2022-11-25T16:45:30;10.70;99.90
37998;DHT22;24079;51.824;4.682;2022-11-25T16:47:56;10.60;99.90
37998;DHT22;24079;51.824;4.682;2022-11-25T16:50:22;10.60;99.90
37998;DHT22;24079;51.824;4.682;2022-11-25T16:52:47;10.60;99.90
37998;DHT22;24079;51.824;4.682;2022-11-25T16:55:14;10.50;99.90
37998;DHT22;24079;51.824;4.682;2022-11-25T16:57:41;10.40;99.90
37998;DHT22;24079;51.824;4.682;2022-11-25T17:00:13;10.50;99.90
37998;DHT22;24079;51.824;4.682;2022-11-25T17:02:41;10.40;99.90
37998;DHT22;24079;51.824;4.682;2022-11-25T17:05:22;10.50;99.90
37998;DHT22;24079;51.824;4.682;2022-11-25T17:07:48;10.50;99.90
37998;DHT22;24079;51.824;4.682;2022-11-25T17:10:19;10.50;99.90
37998;DHT22;24079;51.824;4.682;2022-11-25T17:12:46;10.50;99.90
37998;DHT22;24079;51.824;4.682;2022-11-25T17:15:21;10.40;99.90
37998;DHT22;24079;51.824;4.682;2022-11-25T17:17:49;10.40;99.90
37998;DHT22;24079;51.824;4.682;2022-11-25T17:20:17;10.30;99.90
37998;DHT22;24079;51.824;4.682;2022-11-25T17:22:43;10.40;99.90
37998;DHT22;24079;51.824;4.682;2022-11-25T17:25:11;10.30;99.90
37998;DHT22;24079;51.824;4.682;2022-11-25T17:27:37;10.30;99.90
37998;DHT22;24079;51.824;4.682;2022-11-25T17:30:05;10.30;99.90
37998;DHT22;24079;51.824;4.682;2022-11-25T17:32:31;10.10;99.90
37998;DHT22;24079;51.824;4.682;2022-11-25T17:34:58;10.10;99.90
37998;DHT22;24079;51.824;4.682;2022-11-25T17:37:24;10.10;99.90
37998;DHT22;24079;51.824;4.682;2022-11-25T17:39:50;10.10;99.90
37998;DHT22;24079;51.824;4.682;2022-11-25T17:42:27;10.10;99.90
37998;DHT22;24079;51.824;4.682;2022-11-25T17:44:54;10.10;99.90
37998;DHT22;24079;51.824;4.682;2022-11-25T17:47:20;10.20;99.90
37998;DHT22;24079;51.824;4.682;2022-11-25T17:49:45;10.20;99.90